This is the latest recevied weather packets stored in our database for station/object IZ1UQG-2. If no packets are shown the sender has not sent any weather packets the latest 10 day(s).
| Time | Temp. | Humidity | Pressure | Rain* | Wind** | Luminosity | Snow |
|---|---|---|---|---|---|---|---|
| 1778142965 | 15.56° C | 69% | 1011.8 hPa | 0 mm | - | 657 W/m² | - |
| 1778141584 | 14.44° C | 68% | 1012 hPa | 0 mm | - | 601 W/m² | - |
| 1778141344 | 14.44° C | 69% | 1011.9 hPa | 0 mm | - | 592 W/m² | - |
| 1778141284 | 14.44° C | 70% | 1011.9 hPa | 0 mm | - | 589 W/m² | - |
| 1778140563 | 13.89° C | 71% | 1012 hPa | 0 mm | - | 556 W/m² | - |
| 1778140444 | 13.33° C | 71% | 1012 hPa | 0 mm | - | 548 W/m² | - |
| 1778139964 | 13.33° C | 73% | 1012 hPa | 0 mm | - | 529 W/m² | - |
| 1778139915 | 13.33° C | 73% | 1012.1 hPa | 0 mm | - | 526 W/m² | - |
| 1778139129 | 12.78° C | 77% | 1012.2 hPa | 0 mm | - | 490 W/m² | - |
| 1778138764 | 12.78° C | 79% | 1012.3 hPa | 0 mm | - | 476 W/m² | - |
| 1778138704 | 12.78° C | 79% | 1012.3 hPa | 0 mm | - | 475 W/m² | - |
| 1778138105 | 12.22° C | 80% | 1012.4 hPa | 0 mm | - | 447 W/m² | - |
| 1778137083 | 11.67° C | 82% | 1012.2 hPa | 0 mm | - | 397 W/m² | - |
| 1778136784 | 11.67° C | 82% | 1012.1 hPa | 0 mm | - | 383 W/m² | - |
| 1778136484 | 11.67° C | 82% | 1012.1 hPa | 0 mm | - | 367 W/m² | - |
| 1778136249 | 11.67° C | 83% | 1012.1 hPa | 0 mm | - | 357 W/m² | - |
| 1778136184 | 11.67° C | 83% | 1012.1 hPa | 0 mm | - | 352 W/m² | - |
| 1778135944 | 11.11° C | 83% | 1012.2 hPa | 0 mm | - | 341 W/m² | - |
| 1778135290 | 11.11° C | 85% | 1012.1 hPa | 0 mm | - | 299 W/m² | - |
| 1778134384 | 10.56° C | 86% | 1012 hPa | 0 mm | - | 253 W/m² | - |
| 1778134335 | 10.56° C | 86% | 1012.1 hPa | 0 mm | - | 251 W/m² | - |
| 1778133904 | 10.56° C | 87% | 1012 hPa | 0 mm | - | 236 W/m² | - |
| 1778133424 | 10.56° C | 87% | 1012 hPa | 0 mm | - | 213 W/m² | - |
| 1778133125 | 10.56° C | 89% | 1011.9 hPa | 0 mm | - | 202 W/m² | - |
| 1778133064 | 10.56° C | 89% | 1012 hPa | 0 mm | - | 197 W/m² | - |
* Rain latest hour (hover to see other rain measurements)
** Current wind speed in m/s (hover to see current wind gust speed)